Time;durP1;ratioP1;P1;durP2;ratioP2;P2;SDS_P1;SDS_P2;PMS_P1;PMS_P2;Temp;Humidity;BMP_temperature;BMP_pressure;BME280_temperature;BME280_humidity;BME280_pressure;Samples;Min_cycle;Max_cycle;Signal;HPM_P1;HPM_P2
2021/03/24 00:01:51;;;;;;;2.30;1.70;;;;;;;12.47;45.06;99595.88;1732251;81;21150;-61
2021/03/24 00:04:19;;;;;;;1.95;1.55;;;;;;;12.45;45.08;99593.39;1756449;80;21195;-63
2021/03/24 00:06:47;;;;;;;1.67;1.50;;;;;;;12.44;45.08;99598.89;1739715;82;21276;-64
2021/03/24 00:09:17;;;;;;;2.75;1.57;;;;;;;12.43;45.13;99604.73;1742763;80;21183;-63
2021/03/24 00:11:48;;;;;;;2.05;1.62;;;;;;;12.43;45.06;99598.08;1762576;80;21179;-62
2021/03/24 00:14:16;;;;;;;2.30;1.90;;;;;;;12.29;45.08;99585.59;1743569;81;21145;-64
2021/03/24 00:16:46;;;;;;;2.05;1.70;;;;;;;12.39;45.12;99604.27;1757675;80;21361;-62
2021/03/24 00:19:14;;;;;;;1.80;1.50;;;;;;;12.39;45.14;99604.78;1750563;80;21163;-62
2021/03/24 00:21:43;;;;;;;1.57;1.20;;;;;;;12.38;45.17;99609.78;1756936;81;21578;-63
2021/03/24 00:24:12;;;;;;;2.00;1.55;;;;;;;12.37;45.15;99615.62;1749378;80;21240;-63
2021/03/24 00:26:39;;;;;;;2.15;1.55;;;;;;;12.36;45.12;99619.31;1738675;81;21221;-62
2021/03/24 00:29:07;;;;;;;2.12;1.80;;;;;;;12.34;45.13;99624.00;1729171;82;21420;-63
2021/03/24 00:31:34;;;;;;;2.65;1.50;;;;;;;12.34;45.13;99625.81;1760775;80;21163;-64
2021/03/24 00:34:02;;;;;;;2.05;1.35;;;;;;;12.33;45.15;99615.67;1757854;81;21209;-63
2021/03/24 00:36:30;;;;;;;1.82;1.47;;;;;;;12.32;45.17;99615.84;1759968;81;21234;-63
2021/03/24 00:38:57;;;;;;;2.00;1.42;;;;;;;12.31;45.20;99627.52;1760676;80;21145;-62
2021/03/24 00:41:24;;;;;;;1.85;1.60;;;;;;;12.29;45.18;99628.21;1760732;81;21453;-62
2021/03/24 00:43:54;;;;;;;2.45;1.45;;;;;;;12.28;45.17;99626.55;1769188;80;21557;-62
2021/03/24 00:46:23;;;;;;;1.72;1.32;;;;;;;12.27;45.25;99628.90;1757559;80;21142;-62
2021/03/24 00:48:50;;;;;;;2.00;1.70;;;;;;;12.26;45.22;99625.39;1772262;79;21567;-62
2021/03/24 00:51:18;;;;;;;1.45;1.17;;;;;;;12.26;45.21;99637.88;1752208;80;21610;-62
2021/03/24 00:53:45;;;;;;;2.42;1.60;;;;;;;12.24;45.20;99635.91;1757823;80;21676;-61
2021/03/24 00:56:13;;;;;;;1.72;1.35;;;;;;;12.24;45.26;99627.41;1773618;80;21586;-62
2021/03/24 00:58:41;;;;;;;1.67;1.20;;;;;;;12.22;45.27;99634.75;1769310;79;21142;-63
2021/03/24 01:01:11;;;;;;;1.75;1.47;;;;;;;12.20;45.24;99632.27;1776269;80;21182;-62
2021/03/24 01:03:42;;;;;;;2.35;1.60;;;;;;;12.20;45.29;99630.11;1772866;79;21102;-62
2021/03/24 01:06:10;;;;;;;2.20;1.60;;;;;;;12.19;45.25;99643.13;1767279;80;21537;-62
2021/03/24 01:08:38;;;;;;;1.90;1.60;;;;;;;12.17;45.25;99652.62;1751879;80;21185;-63
2021/03/24 01:11:05;;;;;;;1.65;1.40;;;;;;;12.17;45.26;99653.95;1757187;80;21138;-61
2021/03/24 01:13:33;;;;;;;1.98;1.25;;;;;;;12.16;45.30;99654.12;1773620;79;21185;-63
2021/03/24 01:16:05;;;;;;;1.85;1.35;;;;;;;12.14;45.33;99655.63;1768490;80;21139;-63
2021/03/24 01:18:33;;;;;;;2.70;1.30;;;;;;;12.14;45.32;99652.97;1772679;80;22085;-64
2021/03/24 01:21:00;;;;;;;2.27;1.30;;;;;;;12.12;45.32;99656.83;1759502;80;21576;-62
2021/03/24 01:23:40;;;;;;;2.27;1.70;;;;;;;12.11;45.32;99664.00;1774674;79;21102;-62
2021/03/24 01:26:08;;;;;;;1.45;1.10;;;;;;;12.10;45.35;99664.17;1773994;79;21217;-63
2021/03/24 01:28:36;;;;;;;1.55;1.30;;;;;;;12.09;45.37;99668.67;1776343;80;21614;-61
2021/03/24 01:31:04;;;;;;;1.90;1.50;;;;;;;12.08;45.39;99671.52;1778037;80;22966;-62
2021/03/24 01:33:33;;;;;;;2.30;1.50;;;;;;;12.07;45.35;99668.52;1773385;79;21337;-62
2021/03/24 01:36:01;;;;;;;1.65;1.32;;;;;;;12.06;45.35;99672.20;1776332;80;21126;-61
2021/03/24 01:38:28;;;;;;;1.70;1.50;;;;;;;12.06;45.39;99674.86;1774381;80;21598;-61
2021/03/24 01:40:59;;;;;;;1.50;1.40;;;;;;;12.04;45.34;99680.87;1776393;80;21174;-62
2021/03/24 01:43:35;;;;;;;2.42;1.20;;;;;;;12.02;45.38;99682.38;1774195;80;21343;-62
2021/03/24 01:46:33;;;;;;;2.50;1.47;;;;;;;12.03;45.38;99679.20;1776776;80;21223;-61
2021/03/24 01:49:10;;;;;;;2.00;1.15;;;;;;;12.01;45.46;99687.36;1775124;80;21145;-63
2021/03/24 01:51:48;;;;;;;1.45;1.35;;;;;;;11.99;45.42;99686.71;1769766;80;21653;-62
2021/03/24 01:54:29;;;;;;;1.92;1.40;;;;;;;11.97;45.45;99683.41;1777522;80;21186;-62
2021/03/24 01:57:01;;;;;;;2.35;1.50;;;;;;;11.95;45.53;99690.73;1747026;81;21370;-62
2021/03/24 01:59:30;;;;;;;1.92;1.40;;;;;;;11.93;45.51;99689.58;1760930;80;21180;-63
2021/03/24 02:01:58;;;;;;;1.47;1.30;;;;;;;11.93;45.50;99688.77;1734149;82;21146;-61
2021/03/24 02:04:26;;;;;;;1.65;1.40;;;;;;;11.91;45.50;99689.45;1705910;81;21164;-63
2021/03/24 02:07:16;;;;;;;1.98;1.50;;;;;;;11.91;45.59;99695.59;1723365;82;21149;-62
2021/03/24 02:10:01;;;;;;;2.15;1.50;;;;;;;11.91;45.54;99694.77;1711915;81;21211;-63
2021/03/24 02:12:39;;;;;;;2.08;1.55;;;;;;;11.88;45.61;99688.42;1726040;81;21137;-62
2021/03/24 02:15:17;;;;;;;1.75;1.40;;;;;;;11.85;45.58;99689.62;1720992;81;21152;-62
2021/03/24 02:17:46;;;;;;;2.02;1.40;;;;;;;11.84;45.64;99689.79;1729882;81;21625;-64
2021/03/24 02:20:24;;;;;;;2.83;1.80;;;;;;;11.83;45.60;99690.30;1708473;82;21562;-63
2021/03/24 02:22:57;;;;;;;2.45;1.35;;;;;;;11.82;45.61;99697.98;1725339;81;22167;-63
2021/03/24 02:25:45;;;;;;;1.52;1.27;;;;;;;11.81;45.65;99701.12;1705772;82;21121;-62
2021/03/24 02:28:12;;;;;;;2.05;1.50;;;;;;;11.80;45.66;99703.95;1718874;81;21180;-63
2021/03/24 02:30:44;;;;;;;2.08;1.40;;;;;;;11.79;45.70;99696.98;1691122;82;21129;-63
2021/03/24 02:33:21;;;;;;;1.95;1.60;;;;;;;11.78;45.68;99703.30;1716881;81;21124;-62
2021/03/24 02:36:26;;;;;;;1.87;1.32;;;;;;;11.81;45.69;99702.95;1841893;75;28217;-63
2021/03/24 02:38:57;;;;;;;1.77;1.32;;;;;;;11.76;45.69;99707.97;1796618;77;21567;-62
2021/03/24 02:41:24;;;;;;;1.87;1.50;;;;;;;11.76;45.64;99713.30;1787599;78;22261;-64
2021/03/24 02:43:52;;;;;;;1.40;1.00;;;;;;;11.76;45.65;99711.97;1798336;77;21189;-63
2021/03/24 02:46:19;;;;;;;2.08;1.50;;;;;;;11.76;45.64;99718.14;1801963;78;21142;-62
2021/03/24 02:48:48;;;;;;;3.20;1.80;;;;;;;11.75;45.67;99704.49;1806433;77;21162;-61
2021/03/24 02:51:20;;;;;;;2.65;1.50;;;;;;;11.76;45.66;99714.62;1809559;78;21174;-61
2021/03/24 02:53:49;;;;;;;2.10;1.60;;;;;;;11.75;45.64;99716.98;1797826;78;21292;-62
2021/03/24 02:56:17;;;;;;;2.55;1.82;;;;;;;11.73;45.66;99717.15;1813918;78;21174;-63
2021/03/24 02:58:45;;;;;;;1.50;1.40;;;;;;;11.72;45.69;99716.80;1786849;78;21138;-62
2021/03/24 03:01:17;;;;;;;1.60;1.50;;;;;;;11.73;45.70;99720.32;1788500;78;21150;-62
2021/03/24 03:03:49;;;;;;;2.08;1.60;;;;;;;11.72;45.69;99722.64;1802945;77;21583;-62
2021/03/24 03:06:16;;;;;;;1.72;1.45;;;;;;;11.71;45.68;99729.80;1783543;77;21191;-63
2021/03/24 03:09:10;;;;;;;1.57;1.30;;;;;;;11.70;45.67;99725.98;1782072;77;21074;-62
2021/03/24 03:11:55;;;;;;;1.30;1.20;;;;;;;11.71;45.65;99726.33;1785429;78;21593;-62
2021/03/24 03:14:37;;;;;;;2.10;1.40;;;;;;;11.68;45.66;99729.32;1796173;77;21218;-63
2021/03/24 03:17:13;;;;;;;1.55;1.30;;;;;;;11.67;45.67;99728.50;1782513;78;21158;-63
2021/03/24 03:20:01;;;;;;;1.52;1.40;;;;;;;11.66;45.72;99727.34;1807862;78;21441;-64
2021/03/24 03:22:33;;;;;;;2.35;1.70;;;;;;;11.64;45.73;99728.84;1799352;78;21200;-63
2021/03/24 03:25:22;;;;;;;1.55;1.35;;;;;;;11.60;45.81;99731.02;1804655;77;21728;-64
2021/03/24 03:27:50;;;;;;;1.62;1.30;;;;;;;11.62;45.74;99740.16;1790879;78;21142;-64
2021/03/24 03:30:21;;;;;;;2.00;1.47;;;;;;;11.60;45.82;99739.51;1780942;79;21134;-62
2021/03/24 03:32:51;;;;;;;2.08;1.45;;;;;;;11.58;45.77;99744.18;1789025;79;21377;-62
2021/03/24 03:35:22;;;;;;;1.62;1.32;;;;;;;11.58;45.83;99749.50;1793605;78;21221;-62
2021/03/24 03:37:53;;;;;;;1.67;1.37;;;;;;;11.58;45.80;99743.67;1784678;79;21178;-62
2021/03/24 03:40:23;;;;;;;1.60;1.25;;;;;;;11.57;45.85;99747.34;1786178;77;21126;-64
2021/03/24 03:42:51;;;;;;;1.40;1.30;;;;;;;11.57;45.84;99740.70;1801449;78;21102;-62
2021/03/24 03:45:19;;;;;;;2.20;1.65;;;;;;;11.57;45.83;99741.17;1772376;77;22213;-62
2021/03/24 03:47:47;;;;;;;1.92;1.30;;;;;;;11.57;45.87;99745.17;1792479;79;21174;-66
2021/03/24 03:50:20;;;;;;;2.08;1.40;;;;;;;11.57;45.79;99754.48;1779164;79;21157;-62
2021/03/24 03:53:22;;;;;;;2.20;1.35;;;;;;;11.55;45.83;99753.34;1781711;77;21185;-62
2021/03/24 03:56:08;;;;;;;2.08;1.72;;;;;;;11.55;45.80;99756.48;1779528;77;21102;-62
2021/03/24 03:58:48;;;;;;;2.60;1.57;;;;;;;11.52;45.89;99756.34;1794100;78;21388;-63
2021/03/24 04:01:33;;;;;;;2.50;1.55;;;;;;;11.50;45.88;99761.02;1805425;77;21210;-64
2021/03/24 04:04:33;;;;;;;1.80;1.37;;;;;;;11.49;45.93;99764.69;1784147;78;21173;-62
2021/03/24 04:07:31;;;;;;;2.47;1.70;;;;;;;11.49;45.86;99757.19;1767059;77;21130;-62
2021/03/24 04:09:58;;;;;;;2.27;1.70;;;;;;;11.45;46.01;99764.68;1777011;79;21205;-61
2021/03/24 04:12:26;;;;;;;1.95;1.62;;;;;;;11.44;45.96;99763.55;1801666;78;21366;-61
2021/03/24 04:14:54;;;;;;;2.20;1.85;;;;;;;11.43;45.96;99766.69;1805756;79;21118;-62
2021/03/24 04:17:30;;;;;;;2.08;1.45;;;;;;;11.44;45.92;99771.02;1815635;78;21152;-62
2021/03/24 04:19:59;;;;;;;1.72;1.57;;;;;;;11.44;45.97;99772.35;1791869;78;21225;-61
2021/03/24 04:22:28;;;;;;;2.02;1.57;;;;;;;11.42;45.99;99774.36;1762285;79;21174;-62
2021/03/24 04:24:57;;;;;;;2.27;1.77;;;;;;;11.43;46.02;99774.67;1754877;80;21173;-63
2021/03/24 04:27:30;;;;;;;1.62;1.50;;;;;;;11.44;46.03;99773.68;1752428;78;21134;-63
2021/03/24 04:30:10;;;;;;;2.87;1.92;;;;;;;11.44;46.03;99780.84;1815735;77;21120;-62
2021/03/24 04:32:37;;;;;;;2.98;1.70;;;;;;;11.44;45.97;99789.64;1775230;78;21158;-62
2021/03/24 04:35:07;;;;;;;1.98;1.52;;;;;;;11.43;45.98;99782.65;1794875;78;21166;-64
2021/03/24 04:37:44;;;;;;;2.35;1.60;;;;;;;11.45;46.00;99791.80;1781358;79;22263;-62
2021/03/24 04:40:34;;;;;;;1.60;1.47;;;;;;;11.44;45.98;99789.64;1789466;77;21177;-62
2021/03/24 04:43:10;;;;;;;1.82;1.60;;;;;;;11.44;45.99;99792.30;1801164;78;21138;-62
2021/03/24 04:45:50;;;;;;;2.42;1.98;;;;;;;11.42;46.01;99798.30;1796946;77;21178;-62
2021/03/24 04:48:21;;;;;;;3.45;2.10;;;;;;;11.43;45.95;99811.09;1791556;78;21118;-63
2021/03/24 04:50:59;;;;;;;2.20;1.57;;;;;;;11.42;45.98;99806.28;1799429;78;21362;-63
2021/03/24 04:53:30;;;;;;;2.92;1.80;;;;;;;11.41;46.03;99806.78;1785979;79;21139;-63
2021/03/24 04:55:57;;;;;;;2.75;1.90;;;;;;;11.42;46.05;99806.28;1801609;77;21159;-63
2021/03/24 04:58:41;;;;;;;3.52;1.80;;;;;;;11.43;46.04;99808.42;1789280;78;22095;-61
2021/03/24 05:01:27;;;;;;;2.27;1.72;;;;;;;11.44;46.04;99822.07;1775605;77;21220;-62
2021/03/24 05:04:02;;;;;;;1.95;1.55;;;;;;;11.42;46.03;99819.58;1779975;77;21458;-62
2021/03/24 05:06:39;;;;;;;3.12;1.85;;;;;;;11.42;46.05;99822.23;1793872;79;21150;-63
2021/03/24 05:09:07;;;;;;;1.95;1.50;;;;;;;11.41;46.08;99825.41;1786977;78;21162;-62
2021/03/24 05:11:42;;;;;;;2.17;1.70;;;;;;;11.40;46.10;99817.08;1795654;78;21484;-63
2021/03/24 05:14:45;;;;;;;3.02;1.75;;;;;;;11.40;46.11;99826.39;1801445;77;21357;-63
2021/03/24 05:17:25;;;;;;;2.02;1.50;;;;;;;11.42;46.09;99823.56;1784423;78;21501;-64
2021/03/24 05:19:58;;;;;;;2.42;1.82;;;;;;;11.41;46.17;99818.76;1762638;79;21130;-62
2021/03/24 05:22:31;;;;;;;2.77;2.00;;;;;;;11.40;46.11;99818.41;1790635;77;21099;-63
2021/03/24 05:25:07;;;;;;;2.37;1.60;;;;;;;11.40;46.07;99821.07;1807599;78;21165;-64
2021/03/24 05:27:43;;;;;;;2.67;1.52;;;;;;;11.42;46.09;99824.90;1801304;78;21118;-62
2021/03/24 05:30:26;;;;;;;1.87;1.60;;;;;;;11.43;46.14;99826.54;1788181;78;21364;-62
2021/03/24 05:33:04;;;;;;;1.75;1.65;;;;;;;11.44;46.08;99828.22;1781741;78;21141;-61
2021/03/24 05:36:03;;;;;;;2.05;1.50;;;;;;;11.44;46.12;99830.05;1790301;78;21169;-62
2021/03/24 05:38:40;;;;;;;3.00;2.08;;;;;;;11.45;46.04;99821.88;1822940;78;21121;-62
2021/03/24 05:41:37;;;;;;;3.52;2.05;;;;;;;11.44;45.99;99825.55;1802132;78;21134;-63
2021/03/24 05:44:52;;;;;;;2.22;1.87;;;;;;;11.45;46.07;99827.70;1801260;78;22103;-63
2021/03/24 05:48:01;;;;;;;2.00;1.72;;;;;;;11.45;46.06;99822.39;1802766;78;21618;-63
2021/03/24 05:51:18;;;;;;;3.10;1.67;;;;;;;11.44;46.04;99831.38;1810406;76;21173;-63
2021/03/24 05:54:07;;;;;;;1.70;1.60;;;;;;;11.42;46.10;99828.89;1802359;78;21162;-63
2021/03/24 05:57:22;;;;;;;2.27;1.90;;;;;;;11.41;45.92;99838.70;1822753;76;21098;-63
2021/03/24 06:00:17;;;;;;;2.60;1.92;;;;;;;11.43;45.90;99838.52;1801997;78;22785;-62
2021/03/24 06:03:05;;;;;;;1.67;1.57;;;;;;;11.43;45.91;99838.52;1824777;76;21163;-63
2021/03/24 06:05:53;;;;;;;1.98;1.40;;;;;;;11.43;45.85;99855.80;1813413;76;21129;-63
2021/03/24 06:08:52;;;;;;;4.10;2.20;;;;;;;11.44;45.84;99856.66;1817346;78;21117;-63
2021/03/24 06:11:53;;;;;;;2.40;2.00;;;;;;;11.46;45.78;99863.45;1777541;78;21192;-62
2021/03/24 06:14:47;;;;;;;2.65;1.90;;;;;;;11.47;45.78;99867.76;1813737;76;21434;-64
2021/03/24 06:17:35;;;;;;;2.00;1.80;;;;;;;11.38;45.80;99857.66;1811538;78;21102;-63
2021/03/24 06:20:15;;;;;;;4.37;2.25;;;;;;;11.49;45.68;99864.45;1764727;79;21236;-63
2021/03/24 06:23:10;;;;;;;2.37;1.98;;;;;;;11.51;45.68;99868.25;1790143;79;21158;-63
2021/03/24 06:26:07;;;;;;;2.92;2.08;;;;;;;11.53;45.73;99881.73;1783950;79;21133;-63
2021/03/24 06:29:02;;;;;;;2.00;1.65;;;;;;;11.55;45.72;99878.39;1788833;79;21114;-62
2021/03/24 06:31:56;;;;;;;2.17;1.95;;;;;;;11.57;45.64;99879.53;1753026;81;21187;-64
2021/03/24 06:35:10;;;;;;;2.92;2.20;;;;;;;11.58;45.61;99878.03;1765962;79;21165;-62
2021/03/24 06:38:04;;;;;;;2.90;2.08;;;;;;;11.59;45.63;99878.37;1753340;80;21169;-63
2021/03/24 06:41:00;;;;;;;2.87;1.98;;;;;;;11.60;45.64;99884.02;1758844;79;21187;-64
2021/03/24 06:43:41;;;;;;;2.60;2.00;;;;;;;11.62;45.59;99891.83;1751679;80;21417;-62
2021/03/24 06:46:36;;;;;;;2.27;1.80;;;;;;;11.64;45.58;99889.83;1782097;78;21209;-63
2021/03/24 06:49:28;;;;;;;;;;;;;;;11.65;45.54;99887.98;1787663;79;21138;-63
2021/03/24 06:52:07;;;;;;;3.02;1.98;;;;;;;11.67;45.49;99892.16;1805072;79;20263;-64
2021/03/24 06:55:06;;;;;;;2.02;1.70;;;;;;;11.60;45.62;99888.01;1795901;79;21110;-63
2021/03/24 06:57:53;;;;;;;2.20;1.77;;;;;;;11.64;45.58;99891.16;1788048;79;21204;-63
2021/03/24 07:01:06;;;;;;;2.72;1.90;;;;;;;11.67;45.48;99890.83;1780229;79;21157;-65
2021/03/24 07:04:12;;;;;;;2.50;1.80;;;;;;;11.71;45.41;99889.98;1782900;79;21139;-63
2021/03/24 07:07:16;;;;;;;2.08;1.70;;;;;;;11.72;45.46;99889.80;1801776;79;21200;-63
2021/03/24 07:10:26;;;;;;;1.87;1.67;;;;;;;11.74;45.41;99890.48;1784094;79;21119;-64
2021/03/24 07:13:14;;;;;;;2.45;1.77;;;;;;;11.77;45.43;99887.97;1776614;79;21395;-64
2021/03/24 07:16:05;;;;;;;4.85;2.08;;;;;;;11.79;45.45;99893.95;1811928;77;21983;-64
2021/03/24 07:19:10;;;;;;;2.70;2.10;;;;;;;11.81;45.44;99897.27;1771962;79;21154;-63
2021/03/24 07:22:21;;;;;;;2.22;1.67;;;;;;;11.85;45.41;99903.08;1785354;79;21154;-64
2021/03/24 07:25:02;;;;;;;2.22;1.90;;;;;;;11.86;45.35;99893.59;1787723;79;21119;-63
2021/03/24 07:28:14;;;;;;;2.98;2.22;;;;;;;11.89;45.38;99898.59;1790251;79;21275;-65
2021/03/24 07:31:09;;;;;;;2.42;1.82;;;;;;;11.93;45.50;99900.41;1800596;77;21213;-64
2021/03/24 07:34:16;;;;;;;3.65;2.20;;;;;;;11.96;45.48;99904.89;1775627;79;21702;-64
2021/03/24 07:37:04;;;;;;;2.22;1.77;;;;;;;12.00;45.46;99913.36;1797217;79;21175;-64
2021/03/24 07:39:55;;;;;;;2.22;1.80;;;;;;;12.03;45.44;99916.98;1794409;79;21593;-64
2021/03/24 07:42:56;;;;;;;2.90;2.02;;;;;;;12.06;45.40;99915.33;1790869;77;21371;-65
2021/03/24 07:46:01;;;;;;;2.75;2.10;;;;;;;12.09;45.36;99918.98;1805159;79;21150;-64
2021/03/24 07:49:09;;;;;;;2.83;2.17;;;;;;;12.13;45.37;99922.10;1788576;79;21201;-64
2021/03/24 07:52:00;;;;;;;2.72;2.20;;;;;;;12.16;45.32;99924.44;1787798;77;21134;-64
2021/03/24 07:55:28;;;;;;;3.20;2.35;;;;;;;12.18;45.30;99915.77;1784993;77;21169;-63
2021/03/24 07:58:22;;;;;;;2.25;1.85;;;;;;;12.24;45.27;99922.23;1785472;79;21381;-63
2021/03/24 08:01:11;;;;;;;2.65;2.12;;;;;;;12.27;45.24;99929.38;1791553;77;21698;-62
2021/03/24 08:03:58;;;;;;;3.05;1.90;;;;;;;12.31;45.23;99926.69;1782208;77;21130;-63
2021/03/24 08:06:41;;;;;;;2.72;2.15;;;;;;;12.35;45.21;99929.32;1788752;79;21590;-65
2021/03/24 08:09:38;;;;;;;2.77;2.15;;;;;;;12.40;45.16;99926.16;1781261;77;22227;-65
2021/03/24 08:12:27;;;;;;;2.60;2.05;;;;;;;12.45;45.12;99928.28;1786232;79;21621;-63
2021/03/24 08:15:18;;;;;;;2.90;2.20;;;;;;;12.50;45.07;99926.75;1796164;77;21118;-61
2021/03/24 08:18:14;;;;;;;3.08;2.02;;;;;;;12.55;45.07;99936.36;1780964;77;21337;-61
2021/03/24 08:21:20;;;;;;;2.75;1.80;;;;;;;12.59;45.05;99935.03;1795490;79;21157;-65
2021/03/24 08:24:01;;;;;;;3.80;2.10;;;;;;;12.66;45.09;99939.64;1789642;77;21170;-63
2021/03/24 08:26:52;;;;;;;2.62;1.85;;;;;;;12.70;45.10;99931.62;1796768;78;21352;-63
2021/03/24 08:29:50;;;;;;;2.70;2.33;;;;;;;12.75;45.10;99928.75;1792783;77;21178;-62
2021/03/24 08:33:01;;;;;;;2.70;2.10;;;;;;;12.82;45.17;99932.03;1801593;77;21197;-62
2021/03/24 08:36:06;;;;;;;2.42;1.90;;;;;;;12.87;45.23;99932.33;1808794;77;21217;-65
2021/03/24 08:39:03;;;;;;;2.40;2.03;;;;;;;12.93;45.32;99931.62;1804218;77;21177;-64
2021/03/24 08:42:07;;;;;;;3.02;2.27;;;;;;;12.99;45.40;99932.23;1722711;81;21237;-66
2021/03/24 08:44:56;;;;;;;3.57;2.20;;;;;;;13.05;45.37;99935.51;1714673;82;21246;-62
2021/03/24 08:47:31;;;;;;;2.42;1.85;;;;;;;13.11;45.26;99937.45;1766276;79;21142;-65
2021/03/24 08:50:00;;;;;;;2.17;1.72;;;;;;;13.18;45.07;99933.58;1789745;77;21629;-63
2021/03/24 08:52:55;;;;;;;2.50;1.98;;;;;;;13.25;45.01;99931.00;1788514;79;21154;-65
2021/03/24 08:55:51;;;;;;;2.55;2.10;;;;;;;13.30;44.90;99929.48;1798827;77;21209;-64
2021/03/24 08:58:32;;;;;;;2.17;1.70;;;;;;;13.36;44.79;99926.08;1788655;79;21203;-65
2021/03/24 09:01:23;;;;;;;2.50;1.90;;;;;;;13.43;44.73;99940.05;1753811;80;21580;-63
2021/03/24 09:04:08;;;;;;;2.75;2.10;;;;;;;13.49;44.65;99925.47;1791344;79;21161;-62
2021/03/24 09:07:17;;;;;;;2.55;1.90;;;;;;;13.57;44.69;99935.23;1792564;77;21131;-63
2021/03/24 09:10:16;;;;;;;2.83;2.20;;;;;;;13.65;44.59;99934.31;1791892;77;21187;-66
2021/03/24 09:12:49;;;;;;;3.40;1.98;;;;;;;13.72;44.80;99931.24;1795497;79;21209;-64
2021/03/24 09:15:24;;;;;;;;;;;;;;;13.80;45.08;99933.81;1764031;79;21154;-67
2021/03/24 09:17:59;;;;;;;3.35;2.00;;;;;;;13.90;45.30;99939.69;1788324;79;20293;-64
2021/03/24 09:20:47;;;;;;;2.75;2.02;;;;;;;13.94;45.66;99937.48;1785369;77;21129;-64
2021/03/24 09:23:46;;;;;;;3.72;2.25;;;;;;;14.07;45.80;99935.51;1783309;79;21382;-65
2021/03/24 09:26:43;;;;;;;1.92;1.67;;;;;;;14.21;45.73;99933.30;1786242;77;21198;-63
2021/03/24 09:29:35;;;;;;;2.27;1.70;;;;;;;14.41;45.51;99924.20;1808171;79;28268;-63
2021/03/24 09:32:22;;;;;;;2.35;1.95;;;;;;;14.48;45.39;99934.95;1782536;80;21171;-64
2021/03/24 09:35:20;;;;;;;3.27;1.77;;;;;;;14.60;45.41;99923.28;1803423;78;21400;-63
2021/03/24 09:38:06;;;;;;;2.22;1.80;;;;;;;14.72;45.36;99935.97;1813454;78;21083;-64
2021/03/24 09:40:47;;;;;;;3.12;1.92;;;;;;;14.85;45.41;99929.09;1755430;80;21211;-64
2021/03/24 09:43:22;;;;;;;2.42;1.82;;;;;;;14.98;45.54;99936.42;1766116;80;21207;-65
2021/03/24 09:46:02;;;;;;;3.27;2.22;;;;;;;15.10;46.22;99931.70;1772616;80;21163;-65
2021/03/24 09:48:52;;;;;;;2.22;1.80;;;;;;;15.23;46.96;99920.26;1775654;80;21510;-64
2021/03/24 09:51:39;;;;;;;3.00;1.85;;;;;;;15.36;47.08;99919.55;1778597;80;21202;-64
2021/03/24 09:54:24;;;;;;;2.60;1.80;;;;;;;15.49;46.86;99911.61;1776854;80;21158;-64
2021/03/24 09:57:14;;;;;;;2.15;1.75;;;;;;;15.63;46.94;99895.63;1786422;80;21184;-65
2021/03/24 09:59:52;;;;;;;1.85;1.55;;;;;;;15.76;46.33;99910.46;1778716;80;21836;-65
2021/03/24 10:02:26;;;;;;;2.45;2.05;;;;;;;15.90;45.69;99909.49;1780478;80;21235;-64
2021/03/24 10:04:57;;;;;;;2.30;1.85;;;;;;;16.04;45.27;99923.77;1767504;80;21210;-65
2021/03/24 10:07:28;;;;;;;2.10;1.90;;;;;;;16.19;45.04;99920.14;1775890;80;21162;-64
2021/03/24 10:10:19;;;;;;;2.02;1.82;;;;;;;16.31;45.29;99937.29;1782791;80;21107;-64
2021/03/24 10:13:18;;;;;;;2.42;1.60;;;;;;;16.44;45.61;99936.52;1773637;80;21203;-64
2021/03/24 10:16:01;;;;;;;1.77;1.67;;;;;;;16.56;44.79;99930.05;1776394;80;21215;-63
2021/03/24 10:18:41;;;;;;;2.47;1.70;;;;;;;16.69;44.66;99920.17;1771168;80;21206;-65
2021/03/24 10:21:16;;;;;;;2.25;1.60;;;;;;;16.78;44.22;99914.60;1784431;80;21326;-62
2021/03/24 10:23:56;;;;;;;2.25;2.05;;;;;;;16.95;43.98;99925.80;1773083;80;21587;-63
2021/03/24 10:26:55;;;;;;;2.25;1.80;;;;;;;17.07;43.77;99918.29;1784128;80;21151;-62
2021/03/24 10:29:43;;;;;;;2.65;2.37;;;;;;;17.22;43.63;99922.61;1734044;81;21640;-63
2021/03/24 10:32:32;;;;;;;2.50;1.90;;;;;;;17.35;43.53;99921.26;1727029;81;21680;-66
2021/03/24 10:35:28;;;;;;;1.57;1.47;;;;;;;17.49;43.66;99918.03;1713083;81;21223;-66
2021/03/24 10:38:01;;;;;;;1.75;1.65;;;;;;;17.62;43.37;99916.67;1720925;81;21193;-61
2021/03/24 10:40:35;;;;;;;2.08;1.87;;;;;;;17.77;43.19;99900.31;1723963;82;21183;-63
2021/03/24 10:43:30;;;;;;;2.75;1.80;;;;;;;17.91;43.12;99919.94;1718651;82;21362;-63
2021/03/24 10:46:11;;;;;;;1.70;1.52;;;;;;;18.06;43.05;99915.66;1742369;81;21194;-64
2021/03/24 10:48:58;;;;;;;1.55;1.40;;;;;;;18.23;42.99;99920.86;1730205;82;21180;-64
2021/03/24 10:51:43;;;;;;;1.87;1.57;;;;;;;18.38;42.98;99919.73;1729034;81;21137;-62
2021/03/24 10:54:21;;;;;;;9.18;3.58;;;;;;;18.56;42.90;99914.48;1731514;81;21236;-60
2021/03/24 10:57:02;;;;;;;8.40;3.87;;;;;;;18.94;44.67;99877.27;1738334;81;21404;-59
2021/03/24 10:59:47;;;;;;;7.03;3.37;;;;;;;19.40;49.50;99896.76;1718792;81;21159;-63
2021/03/24 11:02:30;;;;;;;5.80;3.50;;;;;;;19.97;50.22;99928.92;1728398;81;21151;-62
2021/03/24 11:05:08;;;;;;;6.37;3.12;;;;;;;20.50;49.26;99910.72;1732156;81;21136;-62
2021/03/24 11:07:55;;;;;;;4.95;3.05;;;;;;;21.14;47.30;99908.31;1732327;81;21116;-64
2021/03/24 11:10:39;;;;;;;3.92;2.90;;;;;;;21.73;45.52;99908.34;1734337;81;21291;-62
2021/03/24 11:13:42;;;;;;;6.25;3.02;;;;;;;22.33;43.92;99903.09;1742232;80;21131;-62
2021/03/24 11:16:26;;;;;;;3.65;2.65;;;;;;;22.81;42.69;99905.00;1723708;81;21128;-63
2021/03/24 11:18:53;;;;;;;7.78;3.25;;;;;;;23.20;41.50;99896.17;1720706;81;21216;-63
2021/03/24 11:22:02;;;;;;;5.22;3.02;;;;;;;23.42;40.98;99906.55;1734283;81;21231;-61
2021/03/24 11:25:07;;;;;;;4.75;3.35;;;;;;;23.50;40.64;99864.63;1738201;81;21211;-62
2021/03/24 11:27:44;;;;;;;4.97;3.70;;;;;;;23.51;43.31;99856.25;1734651;81;21386;-61
2021/03/24 11:30:32;;;;;;;5.22;3.12;;;;;;;23.51;43.97;99861.67;1763033;81;21280;-62
2021/03/24 11:33:31;;;;;;;3.87;3.08;;;;;;;23.52;43.93;99876.86;1759715;81;21258;-64
2021/03/24 11:36:04;;;;;;;4.55;2.55;;;;;;;23.54;43.72;99874.71;1765812;81;21158;-62
2021/03/24 11:39:04;;;;;;;5.47;3.37;;;;;;;23.74;43.21;99875.53;1769003;81;21382;-63
2021/03/24 11:41:36;;;;;;;5.03;2.83;;;;;;;23.96;42.85;99847.61;1756619;81;21907;-62
2021/03/24 11:44:17;;;;;;;4.75;3.02;;;;;;;24.25;42.03;99854.16;1767976;81;21145;-64
2021/03/24 11:46:51;;;;;;;4.70;2.95;;;;;;;24.49;41.27;99852.78;1765270;81;21178;-65
2021/03/24 11:49:45;;;;;;;3.55;3.00;;;;;;;24.80;40.63;99854.95;1760008;81;21198;-63
2021/03/24 11:52:31;;;;;;;3.97;2.83;;;;;;;25.10;40.14;99848.94;1750833;81;21548;-64
2021/03/24 11:55:08;;;;;;;3.85;3.27;;;;;;;25.46;39.76;99858.16;1779501;80;21182;-64
2021/03/24 11:58:05;;;;;;;3.45;3.15;;;;;;;25.82;39.22;99847.42;1740252;80;21203;-64
2021/03/24 12:00:46;;;;;;;5.10;2.98;;;;;;;26.14;38.85;99847.84;1747294;81;21126;-62
2021/03/24 12:03:37;;;;;;;4.00;2.95;;;;;;;26.49;38.46;99873.50;1758684;80;21214;-63
2021/03/24 12:06:29;;;;;;;4.03;2.90;;;;;;;26.76;37.98;99876.00;1747283;81;21381;-62
2021/03/24 12:09:10;;;;;;;3.58;2.85;;;;;;;27.05;37.99;99874.09;1759945;81;21154;-62
2021/03/24 12:11:40;;;;;;;4.35;3.02;;;;;;;27.29;37.90;99851.16;1763351;81;21158;-64
2021/03/24 12:14:26;;;;;;;2.85;2.52;;;;;;;27.49;37.55;99858.48;1754150;81;21588;-62
2021/03/24 12:17:01;;;;;;;4.03;2.90;;;;;;;27.69;37.05;99863.59;1753773;81;21162;-62
2021/03/24 12:19:42;;;;;;;3.00;2.70;;;;;;;27.87;36.52;99849.31;1762829;81;22103;-64
2021/03/24 12:22:28;;;;;;;3.35;2.58;;;;;;;28.01;36.26;99861.86;1758466;81;22126;-63
2021/03/24 12:25:11;;;;;;;3.22;2.92;;;;;;;28.16;35.90;99858.20;1760555;81;21242;-62
2021/03/24 12:27:43;;;;;;;3.45;2.72;;;;;;;28.26;35.56;99846.40;1761558;81;21603;-63
2021/03/24 12:33:22;;;;;;;3.62;2.65;;;;;;;28.50;35.18;99841.86;1788368;79;23247;-62
2021/03/24 12:36:06;;;;;;;3.00;2.65;;;;;;;28.53;35.07;99835.88;1772886;80;21139;-62
2021/03/24 12:39:04;;;;;;;2.95;2.60;;;;;;;28.47;34.82;99843.78;1814706;78;21210;-62
2021/03/24 12:41:40;;;;;;;3.22;2.65;;;;;;;28.41;34.71;99881.28;1806525;78;20969;-64
2021/03/24 12:44:30;;;;;;;2.83;2.42;;;;;;;28.38;34.49;99881.84;1791663;78;21215;-60
2021/03/24 12:47:05;;;;;;;2.98;2.35;;;;;;;28.35;34.43;99885.13;1800164;77;21635;-63
2021/03/24 12:49:37;;;;;;;2.52;2.20;;;;;;;28.29;34.48;99871.80;1795437;78;21187;-62